createdAt,value
2018-11-21T00:01:18.984Z,30.07
2018-11-21T00:03:59.462Z,28.70
2018-11-21T00:06:41.178Z,29.83
2018-11-21T00:09:21.915Z,29.57
2018-11-21T00:12:01.792Z,30.10
2018-11-21T00:14:42.534Z,30.00
2018-11-21T00:17:22.611Z,31.40
2018-11-21T00:20:03.265Z,29.83
2018-11-21T00:22:44.014Z,31.10
2018-11-21T00:25:23.897Z,31.23
2018-11-21T00:28:03.964Z,31.33
2018-11-21T00:30:44.495Z,31.87
2018-11-21T00:33:25.270Z,31.10
2018-11-21T00:36:05.656Z,30.97
2018-11-21T00:38:45.675Z,29.97
2018-11-21T00:41:26.526Z,30.90
2018-11-21T00:44:07.283Z,30.63
2018-11-21T00:46:47.991Z,30.17
2018-11-21T00:49:28.274Z,30.10
2018-11-21T00:52:08.713Z,30.70
2018-11-21T00:54:49.246Z,30.60
2018-11-21T00:57:28.118Z,30.47
2018-11-21T01:00:08.598Z,31.13
2018-11-21T01:02:48.776Z,30.37
2018-11-21T01:05:29.438Z,30.40
2018-11-21T01:08:10.275Z,31.20
2018-11-21T01:10:51.008Z,31.43
2018-11-21T01:13:31.009Z,31.27
2018-11-21T01:16:11.773Z,29.77
2018-11-21T01:18:51.787Z,32.10
2018-11-21T01:21:31.822Z,30.77
2018-11-21T01:24:12.060Z,31.23
2018-11-21T01:26:52.685Z,30.50
2018-11-21T01:29:33.088Z,30.17
2018-11-21T01:32:13.754Z,30.57
2018-11-21T01:34:53.966Z,30.43
2018-11-21T01:37:34.605Z,29.93
2018-11-21T01:40:14.685Z,30.20
2018-11-21T01:42:55.357Z,31.63
2018-11-21T01:45:35.547Z,30.53
2018-11-21T01:48:15.947Z,31.33
2018-11-21T01:50:56.603Z,30.33
2018-11-21T01:53:37.096Z,30.87
2018-11-21T01:56:17.635Z,30.60
2018-11-21T01:58:58.437Z,29.83
2018-11-21T02:01:38.532Z,29.87
2018-11-21T02:04:19.012Z,29.97
2018-11-21T02:06:59.610Z,29.13
2018-11-21T02:09:39.986Z,29.93
2018-11-21T02:12:20.651Z,29.63
2018-11-21T02:15:01.361Z,29.23
2018-11-21T02:17:41.370Z,29.47
2018-11-21T02:20:21.985Z,29.27
2018-11-21T02:23:02.738Z,27.70
2018-11-21T02:25:43.194Z,28.03
2018-11-21T02:28:24.030Z,29.53
2018-11-21T02:31:04.025Z,27.80
2018-11-21T02:33:44.558Z,28.77
2018-11-21T02:36:25.310Z,28.90
2018-11-21T02:39:05.734Z,28.17
2018-11-21T02:41:45.751Z,27.70
2018-11-21T02:44:26.955Z,27.63
2018-11-21T02:47:07.797Z,27.43
2018-11-21T02:49:48.389Z,28.00
2018-11-21T02:52:29.104Z,28.00
2018-11-21T02:55:09.264Z,26.67
2018-11-21T02:57:49.932Z,28.03
2018-11-21T03:00:30.091Z,27.87
2018-11-21T03:03:10.886Z,28.73
2018-11-21T03:05:51.640Z,27.37
2018-11-21T03:08:31.725Z,27.97
2018-11-21T03:11:11.867Z,27.67
2018-11-21T03:13:51.820Z,28.10
2018-11-21T03:16:31.702Z,27.80
2018-11-21T03:19:11.857Z,28.03
2018-11-21T03:21:51.700Z,27.63
2018-11-21T03:24:31.749Z,27.83
2018-11-21T03:27:12.346Z,28.30
2018-11-21T03:29:53.151Z,29.00
2018-11-21T03:32:33.047Z,28.90
2018-11-21T03:35:13.550Z,28.13
2018-11-21T03:37:53.949Z,27.87
2018-11-21T03:40:34.520Z,30.40
2018-11-21T03:43:15.019Z,28.87
2018-11-21T03:45:55.203Z,27.93
2018-11-21T03:48:35.743Z,28.23
2018-11-21T03:51:16.204Z,28.83
2018-11-21T03:53:56.643Z,27.70
2018-11-21T03:56:37.837Z,29.63
2018-11-21T03:59:17.978Z,27.97
2018-11-21T04:01:58.506Z,28.00
2018-11-21T04:04:39.058Z,28.17
2018-11-21T04:07:19.731Z,28.77
2018-11-21T04:09:59.699Z,28.87
2018-11-21T04:12:40.504Z,28.57
2018-11-21T04:15:20.364Z,30.07
2018-11-21T04:18:01.084Z,28.70
2018-11-21T04:20:41.663Z,31.33
2018-11-21T04:23:22.287Z,30.93
2018-11-21T04:26:02.751Z,29.37
2018-11-21T04:28:43.370Z,30.90
2018-11-21T04:31:24.021Z,29.93
2018-11-21T04:34:04.304Z,29.77
2018-11-21T04:36:45.040Z,30.03
2018-11-21T04:39:25.018Z,29.67
2018-11-21T04:42:05.565Z,29.93
2018-11-21T04:44:45.470Z,28.50
2018-11-21T04:47:25.983Z,30.13
2018-11-21T04:50:06.874Z,30.70
2018-11-21T04:52:47.481Z,29.33
2018-11-21T04:55:28.314Z,30.70
2018-11-21T04:58:08.867Z,30.10
2018-11-21T05:00:49.646Z,31.97
2018-11-21T05:03:30.210Z,32.00
2018-11-21T05:06:10.223Z,35.00
2018-11-21T05:08:50.622Z,33.87
2018-11-21T05:11:30.984Z,34.07
2018-11-21T05:14:11.545Z,33.57
2018-11-21T05:16:52.023Z,32.90
2018-11-21T05:19:32.713Z,34.30
2018-11-21T05:22:13.060Z,34.00
2018-11-21T05:24:53.652Z,34.47
2018-11-21T05:27:34.012Z,33.73
2018-11-21T05:30:14.671Z,34.10
2018-11-21T05:32:54.505Z,32.80
2018-11-21T05:35:35.189Z,33.93
2018-11-21T05:38:15.132Z,33.60
2018-11-21T05:40:55.044Z,34.20
2018-11-21T05:43:35.762Z,32.10
2018-11-21T05:46:16.424Z,33.37
2018-11-21T05:48:56.636Z,31.73
2018-11-21T05:51:37.058Z,33.17
2018-11-21T05:54:17.674Z,33.33
2018-11-21T05:56:58.447Z,32.60
2018-11-21T05:59:38.911Z,32.70
2018-11-21T06:02:19.516Z,32.67
2018-11-21T06:05:41.989Z,32.83
2018-11-21T06:08:21.845Z,33.93
2018-11-21T06:11:04.019Z,33.07
2018-11-21T06:13:44.313Z,33.17
2018-11-21T06:16:24.438Z,33.97
2018-11-21T06:19:04.554Z,32.53
2018-11-21T06:21:44.400Z,31.63
2018-11-21T06:24:24.044Z,32.57
2018-11-21T06:27:03.725Z,31.47
2018-11-21T06:29:43.390Z,32.67
2018-11-21T06:32:24.530Z,30.13
2018-11-21T06:35:07.755Z,32.23
2018-11-21T06:37:49.495Z,31.90
2018-11-21T06:40:30.116Z,30.97
2018-11-21T06:43:10.070Z,29.93
2018-11-21T06:45:50.533Z,31.30
2018-11-21T06:48:30.234Z,30.27
2018-11-21T06:51:09.808Z,30.87
2018-11-21T06:53:49.448Z,30.27
2018-11-21T06:56:29.202Z,29.67
2018-11-21T06:59:08.864Z,29.90
2018-11-21T07:01:49.123Z,28.97
2018-11-21T07:04:28.763Z,29.60
2018-11-21T07:07:08.503Z,29.07
2018-11-21T07:09:48.352Z,29.67
2018-11-21T07:12:28.185Z,29.23
2018-11-21T07:15:08.271Z,28.73
2018-11-21T07:17:48.554Z,27.57
2018-11-21T07:20:28.211Z,28.67
2018-11-21T07:23:07.667Z,28.23
2018-11-21T07:25:47.584Z,27.47
2018-11-21T07:28:27.116Z,27.63
2018-11-21T07:31:07.066Z,28.67
2018-11-21T07:33:46.968Z,27.70
2018-11-21T07:36:26.820Z,27.50
2018-11-21T07:39:07.138Z,28.30
2018-11-21T07:41:46.926Z,27.17
2018-11-21T07:44:27.306Z,26.97
2018-11-21T07:47:07.219Z,27.10
2018-11-21T07:49:47.139Z,25.90
2018-11-21T07:52:27.711Z,26.83
2018-11-21T07:55:08.191Z,26.47
2018-11-21T07:57:49.973Z,27.83
2018-11-21T08:00:30.048Z,27.03
2018-11-21T08:03:09.855Z,27.10
2018-11-21T08:06:09.058Z,27.27
2018-11-21T08:08:58.704Z,26.47
2018-11-21T08:12:01.453Z,26.13
2018-11-21T08:15:00.497Z,26.20
2018-11-21T08:17:59.674Z,25.90
2018-11-21T08:20:59.340Z,24.57
2018-11-21T08:23:47.764Z,25.90
2018-11-21T08:26:38.033Z,25.17
2018-11-21T08:29:18.047Z,25.40
2018-11-21T08:31:58.478Z,25.87
2018-11-21T08:34:38.277Z,25.77
2018-11-21T08:37:18.020Z,24.47
2018-11-21T08:39:57.747Z,25.67
2018-11-21T08:42:37.900Z,27.80
2018-11-21T08:45:17.618Z,25.63
2018-11-21T08:47:57.330Z,25.17
2018-11-21T08:50:36.979Z,26.80
2018-11-21T08:53:16.542Z,29.53
2018-11-21T08:55:56.295Z,26.77
2018-11-21T08:58:36.306Z,25.90
2018-11-21T09:01:15.861Z,26.30
2018-11-21T09:03:55.597Z,26.50
2018-11-21T09:06:35.177Z,26.10
2018-11-21T09:09:15.838Z,27.73
2018-11-21T09:11:55.952Z,25.97
2018-11-21T09:14:35.681Z,26.80
2018-11-21T09:17:15.351Z,26.27
2018-11-21T09:19:54.879Z,27.87
2018-11-21T09:22:34.564Z,26.23
2018-11-21T09:25:14.418Z,26.80
2018-11-21T09:27:54.077Z,27.57
2018-11-21T09:30:33.727Z,25.90
2018-11-21T09:33:13.671Z,28.13
2018-11-21T09:35:53.282Z,25.67
2018-11-21T09:38:32.831Z,25.90
2018-11-21T09:41:12.549Z,26.50
2018-11-21T09:43:52.059Z,24.67
2018-11-21T09:46:32.020Z,25.53
2018-11-21T09:49:11.658Z,26.10
2018-11-21T09:51:51.384Z,30.63
2018-11-21T09:54:30.906Z,27.40
2018-11-21T09:57:10.775Z,25.20
2018-11-21T09:59:50.300Z,25.30
2018-11-21T10:02:30.666Z,25.00
2018-11-21T10:05:11.062Z,25.87
2018-11-21T10:07:51.184Z,25.23
2018-11-21T10:10:30.700Z,24.53
2018-11-21T10:13:10.467Z,26.23
2018-11-21T10:15:50.135Z,26.13
2018-11-21T10:18:30.342Z,26.17
2018-11-21T10:21:12.186Z,24.60
2018-11-21T10:23:52.711Z,25.97
2018-11-21T10:26:32.824Z,25.07
2018-11-21T10:29:12.574Z,25.60
2018-11-21T10:31:52.362Z,24.40
2018-11-21T10:34:32.655Z,24.33
2018-11-21T10:37:12.315Z,23.77
2018-11-21T10:39:51.906Z,23.40
2018-11-21T10:42:31.392Z,25.07
2018-11-21T10:45:11.161Z,22.93
2018-11-21T10:47:50.915Z,22.27
2018-11-21T10:50:30.679Z,21.57
2018-11-21T10:53:11.136Z,21.10
2018-11-21T10:55:50.910Z,20.97
2018-11-21T10:58:31.178Z,21.60
2018-11-21T11:01:22.951Z,20.93
2018-11-21T11:04:15.540Z,21.27
2018-11-21T11:07:14.884Z,21.10
2018-11-21T11:10:16.081Z,22.20
2018-11-21T11:13:18.798Z,21.97
2018-11-21T11:16:18.310Z,19.90
2018-11-21T11:19:17.999Z,21.77
2018-11-21T11:22:20.678Z,22.13
2018-11-21T11:25:09.541Z,21.70
2018-11-21T11:28:14.622Z,20.17
2018-11-21T11:31:11.759Z,20.27
2018-11-21T11:34:11.362Z,19.77
2018-11-21T11:37:10.747Z,21.17
2018-11-21T11:40:11.443Z,21.17
2018-11-21T11:43:11.943Z,19.87
2018-11-21T11:46:11.268Z,20.63
2018-11-21T11:49:10.814Z,20.77
2018-11-21T11:52:11.381Z,21.30
2018-11-21T11:55:10.355Z,20.53
2018-11-21T11:58:11.285Z,18.67
2018-11-21T12:01:10.754Z,19.70
2018-11-21T12:04:13.177Z,18.13
2018-11-21T12:07:12.867Z,19.33
2018-11-21T12:10:15.324Z,17.50
2018-11-21T12:13:17.608Z,19.27
2018-11-21T12:16:23.463Z,17.67
2018-11-21T12:19:28.979Z,17.80
2018-11-21T12:22:28.867Z,17.20
2018-11-21T12:25:24.748Z,16.20
2018-11-21T12:28:24.430Z,17.40
2018-11-21T12:31:26.642Z,16.50
2018-11-21T12:34:25.715Z,16.40
2018-11-21T12:37:28.491Z,15.80
2018-11-21T12:40:33.693Z,15.93
2018-11-21T12:43:33.516Z,16.00
2018-11-21T12:46:34.566Z,15.37
2018-11-21T12:49:31.601Z,16.77
2018-11-21T12:52:31.231Z,17.63
2018-11-21T12:55:11.404Z,16.90
2018-11-21T13:01:10.703Z,16.63
2018-11-21T13:04:16.511Z,16.73
2018-11-21T13:07:21.585Z,16.70
2018-11-21T13:10:24.577Z,16.83
2018-11-21T13:13:23.943Z,17.67
2018-11-21T13:16:29.348Z,18.77
2018-11-21T13:19:34.523Z,17.63
2018-11-21T13:22:40.225Z,17.30
2018-11-21T13:25:30.629Z,17.83
2018-11-21T13:28:30.348Z,17.00
2018-11-21T13:31:35.893Z,17.57
2018-11-21T13:34:35.193Z,17.10
2018-11-21T13:37:32.847Z,17.53
2018-11-21T13:40:24.024Z,17.03
2018-11-21T13:43:24.936Z,16.17
2018-11-21T13:46:25.707Z,17.10
2018-11-21T13:49:24.746Z,16.43
2018-11-21T13:52:30.698Z,16.47
2018-11-21T13:55:11.067Z,17.30
2018-11-21T13:57:51.118Z,18.43
2018-11-21T14:00:30.845Z,17.40
2018-11-21T14:03:10.488Z,18.33
2018-11-21T14:05:50.646Z,16.17
2018-11-21T14:08:30.509Z,15.77
2018-11-21T14:11:10.245Z,14.87
2018-11-21T14:13:50.320Z,16.07
2018-11-21T14:16:29.927Z,14.63
2018-11-21T14:19:09.711Z,15.10
2018-11-21T14:21:49.886Z,15.83
2018-11-21T14:24:29.248Z,15.03
2018-11-21T14:27:09.803Z,14.67
2018-11-21T14:29:52.392Z,15.63
2018-11-21T14:32:35.404Z,18.70
2018-11-21T14:35:18.546Z,17.10
2018-11-21T14:37:58.501Z,18.40
2018-11-21T14:40:40.637Z,16.90
2018-11-21T14:43:22.923Z,17.60
2018-11-21T14:46:02.588Z,17.20
2018-11-21T14:48:42.288Z,19.30
2018-11-21T14:51:24.658Z,50.67
2018-11-21T14:54:08.233Z,27.60
2018-11-21T14:56:48.627Z,26.30
2018-11-21T14:59:28.280Z,24.30
2018-11-21T15:02:07.795Z,22.23
2018-11-21T15:04:47.512Z,25.67
2018-11-21T15:07:31.681Z,29.33
2018-11-21T15:10:14.695Z,33.20
2018-11-21T15:12:54.672Z,21.63
2018-11-21T15:15:35.297Z,21.13
2018-11-21T15:18:17.457Z,21.23
2018-11-21T15:21:03.127Z,22.70
2018-11-21T15:23:43.291Z,22.70
2018-11-21T15:26:26.101Z,23.87
2018-11-21T15:29:08.787Z,23.27
2018-11-21T15:31:51.083Z,28.80
2018-11-21T15:34:33.844Z,28.50
2018-11-21T15:37:14.347Z,35.17
2018-11-21T15:39:54.164Z,23.27
2018-11-21T15:42:37.097Z,22.63
2018-11-21T15:45:20.132Z,27.30
2018-11-21T15:48:04.654Z,25.30
2018-11-21T15:50:50.768Z,23.63
2018-11-21T15:53:30.718Z,26.00
2018-11-21T15:56:10.694Z,25.80
2018-11-21T15:58:50.653Z,24.93
2018-11-21T16:01:30.288Z,22.70
2018-11-21T16:04:10.953Z,23.90
2018-11-21T16:06:50.834Z,24.57
2018-11-21T16:09:30.501Z,30.10
2018-11-21T16:12:13.218Z,27.20
2018-11-21T16:14:53.307Z,24.47
2018-11-21T16:17:33.786Z,28.40
2018-11-21T16:20:15.588Z,25.73
2018-11-21T16:22:56.185Z,22.77
2018-11-21T16:25:39.233Z,24.43
2018-11-21T16:28:18.883Z,26.87
2018-11-21T16:30:59.004Z,23.97
2018-11-21T16:33:44.746Z,24.80
2018-11-21T16:36:27.285Z,26.03
2018-11-21T16:39:07.647Z,25.23
2018-11-21T16:41:47.803Z,25.27
2018-11-21T16:44:27.739Z,28.00
2018-11-21T16:47:07.659Z,31.30
2018-11-21T16:49:47.400Z,27.43
2018-11-21T16:52:32.711Z,26.03
2018-11-21T16:55:13.684Z,32.47
2018-11-21T16:57:57.963Z,32.73
2018-11-21T17:00:38.631Z,31.43
2018-11-21T17:03:19.093Z,28.20
2018-11-21T17:08:39.512Z,30.40
2018-11-21T17:11:19.633Z,29.33
2018-11-21T17:14:04.956Z,27.70
2018-11-21T17:16:45.100Z,23.67
2018-11-21T17:19:34.522Z,23.90
2018-11-21T17:22:26.174Z,23.47
2018-11-21T17:25:05.865Z,23.60
2018-11-21T17:27:48.885Z,23.70
2018-11-21T17:30:29.426Z,23.27
2018-11-21T17:33:10.094Z,22.60
2018-11-21T17:35:49.812Z,23.03
2018-11-21T17:38:33.655Z,24.27
2018-11-21T17:41:14.062Z,25.10
2018-11-21T17:43:53.822Z,24.63
2018-11-21T17:46:39.357Z,27.27
2018-11-21T17:49:19.262Z,28.50
2018-11-21T17:51:59.874Z,27.60
2018-11-21T17:54:40.396Z,28.27
2018-11-21T17:57:27.873Z,29.37
2018-11-21T18:00:02.909Z,27.60
2018-11-21T18:02:43.372Z,27.77
2018-11-21T18:05:30.015Z,27.97
2018-11-21T18:08:10.319Z,29.90
2018-11-21T18:10:50.131Z,30.80
2018-11-21T18:13:32.472Z,32.20
2018-11-21T18:16:12.266Z,31.40
2018-11-21T18:18:52.800Z,33.20
2018-11-21T18:21:35.417Z,36.97
2018-11-21T18:24:15.639Z,36.40
2018-11-21T18:26:56.264Z,38.00
2018-11-21T18:29:36.180Z,36.57
2018-11-21T18:32:16.702Z,34.67
2018-11-21T18:34:56.763Z,34.27
2018-11-21T18:37:37.267Z,36.53
2018-11-21T18:40:19.340Z,34.73
2018-11-21T18:42:59.605Z,34.90
2018-11-21T18:45:47.564Z,39.20
2018-11-21T18:48:29.944Z,41.30
2018-11-21T18:51:12.573Z,38.17
2018-11-21T18:53:54.832Z,43.70
2018-11-21T18:56:34.337Z,48.77
2018-11-21T18:59:24.930Z,56.90
2018-11-21T19:02:08.221Z,52.43
2018-11-21T19:04:51.050Z,55.57
2018-11-21T19:07:32.930Z,57.33
2018-11-21T19:13:29.741Z,61.00
2018-11-21T19:16:16.071Z,59.73
2018-11-21T19:18:56.501Z,49.67
2018-11-21T19:21:36.949Z,49.50
2018-11-21T19:24:17.676Z,47.60
2018-11-21T19:27:02.149Z,43.13
2018-11-21T19:29:42.054Z,47.57
2018-11-21T19:32:22.635Z,51.47
2018-11-21T19:35:02.934Z,53.63
2018-11-21T19:37:43.843Z,51.73
2018-11-21T19:40:24.671Z,43.87
2018-11-21T19:43:07.102Z,44.23
2018-11-21T19:45:52.578Z,44.37
2018-11-21T19:48:35.566Z,38.03
2018-11-21T19:51:16.248Z,36.60
2018-11-21T19:53:56.716Z,33.87
2018-11-21T19:56:37.228Z,34.43
2018-11-21T19:59:19.151Z,34.73
2018-11-21T20:02:06.410Z,34.30
2018-11-21T20:04:47.195Z,33.60
2018-11-21T20:07:27.372Z,33.60
2018-11-21T20:10:08.076Z,34.23
2018-11-21T20:12:51.657Z,32.90
2018-11-21T20:15:34.380Z,33.17
2018-11-21T20:18:19.864Z,30.87
2018-11-21T20:20:59.985Z,31.30
2018-11-21T20:23:43.003Z,32.27
2018-11-21T20:26:23.468Z,39.70
2018-11-21T20:29:03.409Z,38.73
2018-11-21T20:31:43.814Z,38.30
2018-11-21T20:34:24.863Z,36.03
2018-11-21T20:37:05.501Z,33.97
2018-11-21T20:39:46.941Z,31.50
2018-11-21T20:42:28.680Z,32.40
2018-11-21T20:45:08.896Z,32.47
2018-11-21T20:47:50.273Z,33.03
2018-11-21T20:50:30.942Z,32.10
2018-11-21T20:53:11.634Z,34.07
2018-11-21T20:55:53.438Z,37.83
2018-11-21T20:58:33.494Z,39.37
2018-11-21T21:01:16.696Z,41.27
2018-11-21T21:03:56.686Z,34.70
2018-11-21T21:06:36.335Z,36.17
2018-11-21T21:09:16.836Z,36.00
2018-11-21T21:11:57.458Z,34.83
2018-11-21T21:14:39.747Z,36.67
2018-11-21T21:17:23.351Z,35.13
2018-11-21T21:20:03.805Z,33.30
2018-11-21T21:22:44.250Z,35.23
2018-11-21T21:25:28.403Z,33.43
2018-11-21T21:28:08.265Z,37.63
2018-11-21T21:30:50.849Z,37.20
2018-11-21T21:33:30.875Z,33.93
2018-11-21T21:36:13.482Z,33.10
2018-11-21T21:38:53.382Z,32.27
2018-11-21T21:41:32.952Z,31.00
2018-11-21T21:44:12.671Z,30.57
2018-11-21T21:46:54.318Z,28.53
2018-11-21T21:49:33.954Z,30.37
2018-11-21T21:52:14.281Z,31.27
2018-11-21T21:54:56.996Z,31.13
2018-11-21T21:57:37.014Z,29.03
2018-11-21T22:00:23.766Z,29.27
2018-11-21T22:03:32.035Z,31.53
2018-11-21T22:06:13.206Z,29.17
2018-11-21T22:08:55.715Z,29.83
2018-11-21T22:11:45.074Z,29.10
2018-11-21T22:14:24.820Z,29.57
2018-11-21T22:17:07.547Z,30.10
2018-11-21T22:19:47.359Z,30.93
2018-11-21T22:22:32.180Z,31.27
2018-11-21T22:25:14.150Z,28.10
2018-11-21T22:27:54.446Z,30.20
2018-11-21T22:30:34.179Z,30.33
2018-11-21T22:33:16.488Z,32.63
2018-11-21T22:36:02.836Z,34.83
2018-11-21T22:38:40.895Z,32.47
2018-11-21T22:41:20.564Z,33.40
2018-11-21T22:44:03.553Z,34.03
2018-11-21T22:46:43.310Z,32.77
2018-11-21T22:49:23.095Z,32.63
2018-11-21T22:52:02.622Z,32.17
2018-11-21T22:54:42.257Z,30.50
2018-11-21T22:57:21.914Z,30.73
2018-11-21T23:00:01.604Z,31.13
2018-11-21T23:02:41.572Z,30.70
2018-11-21T23:05:21.105Z,31.63
2018-11-21T23:08:00.637Z,30.97
2018-11-21T23:10:40.594Z,32.37
2018-11-21T23:13:21.467Z,32.57
2018-11-21T23:16:01.421Z,32.20
2018-11-21T23:18:41.469Z,30.70
2018-11-21T23:21:21.123Z,31.90
2018-11-21T23:24:00.799Z,30.50
2018-11-21T23:26:41.192Z,30.73
2018-11-21T23:29:20.992Z,32.13
2018-11-21T23:32:01.358Z,31.80
2018-11-21T23:34:41.788Z,31.07
2018-11-21T23:37:21.463Z,31.00
2018-11-21T23:40:00.970Z,30.13
2018-11-21T23:42:41.672Z,31.90
2018-11-21T23:45:22.075Z,29.77
2018-11-21T23:48:01.888Z,31.17
2018-11-21T23:50:41.938Z,30.70
2018-11-21T23:53:21.547Z,29.93
2018-11-21T23:56:01.449Z,31.57
2018-11-21T23:58:41.105Z,33.13
